Time;durP1;ratioP1;P1;durP2;ratioP2;P2;SDS_P1;SDS_P2;PMS_P1;PMS_P2;Temp;Humidity;BMP_temperature;BMP_pressure;BME280_temperature;BME280_humidity;BME280_pressure;Samples;Min_cycle;Max_cycle;Signal;HPM_P1;HPM_P2
2023/01/09 00:00:39;;;;;;;0.40;0.40;;;10.30;99.90;;;;;;5865542;24;20401;-88
2023/01/09 00:03:56;;;;;;;;;;;;;;;;;;;;;
2023/01/09 00:06:22;;;;;;;0.50;0.50;;;10.20;99.90;;;;;;5961449;23;20906;-86
2023/01/09 00:09:37;;;;;;;0.60;0.40;;;10.00;99.90;;;;;;5995108;23;20435;-87
2023/01/09 00:15:47;;;;;;;0.50;0.50;;;10.30;99.90;;;;;;6112004;23;20570;-87
2023/01/09 00:19:00;;;;;;;0.50;0.40;;;10.30;99.90;;;;;;6095689;23;20447;-86
2023/01/09 00:25:21;;;;;;;0.47;0.47;;;10.10;99.90;;;;;;6114352;23;20408;-88
2023/01/09 00:32:29;;;;;;;0.40;0.40;;;10.00;99.90;;;;;;6129776;23;20423;-90
2023/01/09 00:36:11;;;;;;;;;;;;;;;;;;;;;
2023/01/09 00:47:16;;;;;;;0.50;0.40;;;9.90;99.90;;;;;;5939197;23;20432;-86
2023/01/09 00:51:10;;;;;;;1.07;0.50;;;9.80;99.90;;;;;;5953601;23;20760;-87
2023/01/09 00:55:05;;;;;;;0.40;0.40;;;9.70;99.90;;;;;;5936333;23;20401;-89
2023/01/09 00:58:16;;;;;;;0.40;0.33;;;9.80;99.90;;;;;;5973371;23;20409;-89
2023/01/09 01:01:50;;;;;;;0.37;0.30;;;9.80;99.90;;;;;;5973186;23;20420;-87
2023/01/09 01:08:55;;;;;;;0.30;0.30;;;9.90;99.90;;;;;;5962578;23;20448;-89
2023/01/09 01:12:30;;;;;;;0.60;0.40;;;9.80;99.90;;;;;;6030984;23;20405;-87
2023/01/09 01:20:01;;;;;;;0.50;0.40;;;9.90;99.90;;;;;;6121178;23;20983;-89
2023/01/09 01:36:27;;;;;;;0.40;0.40;;;9.70;99.90;;;;;;6131725;23;20523;-88
2023/01/09 02:01:12;;;;;;;;;;;;;;;;;;;;;
2023/01/09 02:16:06;;;;;;;1.23;0.50;;;9.80;99.90;;;;;;5896342;24;20523;-86
2023/01/09 02:19:35;;;;;;;0.77;0.60;;;9.80;99.90;;;;;;5814686;24;20440;-86
2023/01/09 02:22:52;;;;;;;0.60;0.53;;;9.70;99.90;;;;;;5783175;24;20745;-87
2023/01/09 02:34:08;;;;;;;;;;;;;;;;;;;;;
2023/01/09 02:53:25;;;;;;;0.93;0.33;;;9.30;99.90;;;;;;5986937;23;20430;-87
2023/01/09 02:56:21;;;;;;;0.50;0.50;;;9.30;99.90;;;;;;5996654;23;20492;-88
2023/01/09 02:59:24;;;;;;;0.60;0.40;;;9.30;99.90;;;;;;6091122;23;20416;-87
2023/01/09 03:02:24;;;;;;;0.70;0.50;;;9.30;99.90;;;;;;6088338;23;20424;-87
2023/01/09 03:09:12;;;;;;;1.27;0.50;;;9.40;99.90;;;;;;6032200;23;20419;-87
2023/01/09 03:12:17;;;;;;;0.90;0.60;;;9.90;99.90;;;;;;6036569;23;20506;-88
2023/01/09 03:15:09;;;;;;;0.97;0.60;;;10.00;99.90;;;;;;6093447;23;20424;-87
2023/01/09 03:18:21;;;;;;;0.40;0.40;;;9.90;99.90;;;;;;6150360;23;20417;-85
2023/01/09 03:21:21;;;;;;;3.40;0.53;;;10.00;99.90;;;;;;6148254;23;20419;-87
2023/01/09 03:24:06;;;;;;;0.40;0.40;;;9.90;99.90;;;;;;6097960;23;20440;-86
2023/01/09 03:26:48;;;;;;;0.80;0.60;;;9.90;99.90;;;;;;6157721;23;20443;-86
2023/01/09 03:29:48;;;;;;;0.50;0.50;;;9.80;99.90;;;;;;6154404;23;20425;-88
2023/01/09 03:32:56;;;;;;;0.73;0.73;;;9.50;99.90;;;;;;6182730;23;20465;-86
2023/01/09 03:36:19;;;;;;;0.70;0.60;;;9.40;99.90;;;;;;6161589;23;20454;-88
2023/01/09 03:39:24;;;;;;;1.03;0.60;;;9.50;99.90;;;;;;6147254;23;20750;-86
2023/01/09 03:42:23;;;;;;;0.70;0.50;;;9.80;99.90;;;;;;6177364;23;20415;-87
2023/01/09 03:45:30;;;;;;;1.13;0.50;;;9.80;99.90;;;;;;6173462;23;20499;-87
2023/01/09 03:52:12;;;;;;;0.50;0.43;;;9.80;99.90;;;;;;6122540;23;20512;-86
2023/01/09 03:55:10;;;;;;;0.53;0.53;;;9.80;99.90;;;;;;6153558;23;20521;-85
2023/01/09 03:59:00;;;;;;;;;;;;;;;;;;;;;
2023/01/09 04:02:08;;;;;;;0.83;0.60;;;9.50;99.90;;;;;;6146291;23;20579;-86
2023/01/09 04:04:49;;;;;;;1.20;0.70;;;9.60;99.90;;;;;;6145332;23;20407;-90
2023/01/09 04:07:53;;;;;;;0.87;0.53;;;9.50;99.90;;;;;;6144736;23;20418;-86
2023/01/09 04:10:45;;;;;;;1.60;0.60;;;9.50;99.90;;;;;;6129763;23;20845;-86
2023/01/09 04:13:38;;;;;;;2.40;1.27;;;9.50;99.90;;;;;;6144494;23;20426;-86
2023/01/09 04:19:09;;;;;;;1.70;0.90;;;9.40;99.90;;;;;;6147557;23;20428;-86
2023/01/09 04:21:54;;;;;;;1.00;0.87;;;9.30;99.90;;;;;;6123436;23;20477;-86
2023/01/09 04:28:26;;;;;;;1.73;0.60;;;9.10;99.90;;;;;;6129449;23;20788;-88
2023/01/09 04:31:07;;;;;;;0.93;0.73;;;9.20;99.90;;;;;;6146840;23;20481;-88
2023/01/09 04:33:52;;;;;;;3.37;0.83;;;9.20;99.90;;;;;;6148349;23;20425;-86
2023/01/09 04:36:33;;;;;;;0.60;0.60;;;9.00;99.90;;;;;;6147391;23;20454;-88
2023/01/09 04:39:21;;;;;;;2.43;1.00;;;9.10;99.90;;;;;;6119851;23;20410;-84
2023/01/09 04:42:05;;;;;;;1.03;0.70;;;9.10;99.90;;;;;;6147715;23;20730;-86
2023/01/09 04:44:38;;;;;;;1.47;0.67;;;9.10;99.90;;;;;;6122564;23;20413;-89
2023/01/09 04:47:36;;;;;;;2.53;0.70;;;9.10;99.90;;;;;;6150012;23;20518;-89
2023/01/09 04:50:35;;;;;;;0.80;0.80;;;8.90;99.90;;;;;;6140721;23;20946;-88
2023/01/09 04:53:23;;;;;;;1.30;0.50;;;9.00;99.90;;;;;;6125269;23;20407;-87
2023/01/09 04:56:02;;;;;;;1.47;0.50;;;9.10;99.90;;;;;;6177070;23;20450;-87
2023/01/09 04:58:51;;;;;;;2.53;0.60;;;9.10;99.90;;;;;;6176828;23;20417;-87
2023/01/09 05:04:45;;;;;;;1.40;0.63;;;9.10;99.90;;;;;;6170323;23;20410;-87
2023/01/09 05:07:43;;;;;;;2.43;0.80;;;9.20;99.90;;;;;;6180004;23;20456;-87
2023/01/09 05:10:33;;;;;;;2.37;0.70;;;9.20;99.50;;;;;;6175297;23;20525;-87
2023/01/09 05:13:08;;;;;;;0.80;0.60;;;9.20;99.40;;;;;;6179472;23;20413;-85
2023/01/09 05:15:51;;;;;;;1.70;0.60;;;9.20;99.40;;;;;;6179808;23;20449;-85
2023/01/09 05:18:37;;;;;;;0.97;0.60;;;9.20;99.60;;;;;;6178288;23;20830;-88
2023/01/09 05:21:15;;;;;;;0.80;0.60;;;9.10;99.60;;;;;;6181008;23;20413;-86
2023/01/09 05:23:54;;;;;;;3.10;0.70;;;9.20;99.40;;;;;;6189421;23;20481;-88
2023/01/09 05:27:02;;;;;;;1.33;0.70;;;9.10;99.30;;;;;;6198743;23;20434;-89
2023/01/09 05:29:44;;;;;;;1.10;0.80;;;9.10;99.50;;;;;;6199735;23;20398;-90
2023/01/09 05:32:32;;;;;;;3.00;1.80;;;9.10;99.60;;;;;;6182452;23;20433;-88
2023/01/09 05:35:18;;;;;;;;;;;;;;;;;;;;;
2023/01/09 05:38:16;;;;;;;2.67;0.67;;;9.10;99.50;;;;;;6127067;23;20516;-85
2023/01/09 05:40:43;;;;;;;3.40;1.13;;;9.10;99.50;;;;;;6190331;23;20390;-87
2023/01/09 05:43:13;;;;;;;2.63;0.70;;;9.10;99.50;;;;;;6165064;23;20405;-86
2023/01/09 05:45:43;;;;;;;1.60;0.60;;;9.10;99.50;;;;;;6179927;23;20430;-88
2023/01/09 05:48:16;;;;;;;4.20;0.90;;;9.10;99.40;;;;;;6176486;23;20471;-86
2023/01/09 05:50:51;;;;;;;2.30;1.07;;;9.00;99.40;;;;;;6177909;23;20413;-85
2023/01/09 05:53:26;;;;;;;2.43;1.00;;;9.00;99.50;;;;;;6151268;23;20414;-88
2023/01/09 05:55:53;;;;;;;2.00;0.87;;;9.00;99.30;;;;;;6179122;23;20480;-87
2023/01/09 05:58:20;;;;;;;1.87;0.63;;;9.10;99.20;;;;;;6155290;23;20409;-86
2023/01/09 06:00:48;;;;;;;3.13;1.13;;;9.10;99.30;;;;;;6157459;23;20425;-88
2023/01/09 06:03:22;;;;;;;4.10;1.03;;;9.20;99.20;;;;;;6179203;23;20461;-86
2023/01/09 06:05:50;;;;;;;3.13;0.93;;;9.10;99.20;;;;;;6178123;23;21008;-89
2023/01/09 06:08:22;;;;;;;2.77;1.00;;;9.20;99.30;;;;;;6177412;23;20492;-87
2023/01/09 06:10:51;;;;;;;1.93;0.80;;;9.30;99.10;;;;;;6175663;23;20433;-89
2023/01/09 06:13:20;;;;;;;2.10;0.83;;;9.20;99.10;;;;;;6178265;23;21227;-86
2023/01/09 06:15:48;;;;;;;3.13;1.00;;;9.20;99.30;;;;;;6174654;23;20442;-85
2023/01/09 06:18:20;;;;;;;2.33;0.90;;;9.20;99.20;;;;;;6151789;23;20398;-87
2023/01/09 06:20:48;;;;;;;1.60;1.17;;;9.20;99.20;;;;;;6177822;23;20498;-88
2023/01/09 06:23:15;;;;;;;1.57;0.67;;;9.30;99.30;;;;;;6150484;23;20874;-86
2023/01/09 06:25:44;;;;;;;2.67;1.10;;;9.30;99.50;;;;;;6175036;23;20527;-87
2023/01/09 06:28:16;;;;;;;1.60;1.20;;;9.30;99.30;;;;;;6175430;23;20418;-86
2023/01/09 06:30:43;;;;;;;1.27;1.17;;;9.40;99.40;;;;;;6176152;23;20428;-87
2023/01/09 06:33:10;;;;;;;2.10;1.10;;;9.40;99.20;;;;;;6151677;23;20430;-87
2023/01/09 06:35:43;;;;;;;1.73;0.80;;;9.40;99.30;;;;;;6175698;23;20422;-85
2023/01/09 06:38:19;;;;;;;2.97;0.90;;;9.50;99.20;;;;;;6145137;23;20563;-86
2023/01/09 06:40:49;;;;;;;1.63;0.93;;;9.50;99.40;;;;;;6172687;23;20497;-86
2023/01/09 06:43:18;;;;;;;1.43;0.93;;;9.50;99.50;;;;;;6176224;23;20472;-85
2023/01/09 06:45:45;;;;;;;1.57;0.90;;;9.30;99.80;;;;;;6176355;23;20444;-86
2023/01/09 06:48:16;;;;;;;1.10;0.80;;;9.40;99.90;;;;;;6178862;23;20905;-86
2023/01/09 06:50:44;;;;;;;3.10;1.07;;;9.50;99.90;;;;;;6174434;23;20452;-86
2023/01/09 06:53:17;;;;;;;0.90;0.80;;;9.40;99.80;;;;;;6174243;23;20409;-87
2023/01/09 06:55:52;;;;;;;1.93;1.07;;;9.30;99.90;;;;;;6150048;23;20449;-86
2023/01/09 06:58:19;;;;;;;2.93;1.10;;;9.30;99.90;;;;;;6187554;23;20417;-88
2023/01/09 07:00:48;;;;;;;2.93;1.20;;;9.40;99.90;;;;;;6197458;23;20468;-91
2023/01/09 07:03:45;;;;;;;3.10;1.00;;;9.30;99.90;;;;;;6198420;23;20513;-90
2023/01/09 07:06:18;;;;;;;2.17;0.97;;;9.30;99.90;;;;;;6198984;23;20643;-89
2023/01/09 07:08:48;;;;;;;0.90;0.60;;;9.50;99.90;;;;;;6197569;23;20414;-87
2023/01/09 07:11:18;;;;;;;0.80;0.70;;;9.60;99.90;;;;;;6180142;23;20414;-84
2023/01/09 07:13:45;;;;;;;4.43;0.70;;;9.60;99.90;;;;;;6158909;23;20405;-86
2023/01/09 07:16:15;;;;;;;2.10;0.70;;;9.60;99.90;;;;;;6183044;23;20445;-88
2023/01/09 07:18:42;;;;;;;1.00;0.90;;;9.60;99.90;;;;;;6189379;23;20394;-86
2023/01/09 07:21:11;;;;;;;1.30;1.10;;;9.50;99.90;;;;;;6197879;23;20422;-86
2023/01/09 07:23:40;;;;;;;2.60;1.03;;;9.50;99.90;;;;;;6154248;23;20446;-85
2023/01/09 07:26:08;;;;;;;1.93;1.10;;;9.50;99.90;;;;;;6157762;23;20750;-86
2023/01/09 07:28:37;;;;;;;2.03;0.67;;;9.40;99.90;;;;;;6182434;23;20493;-85
2023/01/09 07:31:06;;;;;;;3.10;0.90;;;9.40;99.90;;;;;;6158216;23;20406;-86
2023/01/09 07:33:35;;;;;;;0.60;0.60;;;9.40;99.90;;;;;;6180741;23;20414;-86
2023/01/09 07:36:02;;;;;;;0.93;0.93;;;9.50;99.90;;;;;;6155333;23;20533;-84
2023/01/09 07:38:31;;;;;;;3.37;0.90;;;9.50;99.90;;;;;;6182038;23;20421;-88
2023/01/09 07:41:09;;;;;;;1.60;0.90;;;9.50;99.90;;;;;;6183247;23;20517;-86
2023/01/09 07:43:37;;;;;;;1.10;0.77;;;9.60;99.90;;;;;;6180389;23;20468;-86
2023/01/09 07:46:08;;;;;;;1.07;0.73;;;9.60;99.90;;;;;;6182369;23;20447;-88
2023/01/09 07:48:38;;;;;;;1.90;0.83;;;9.60;99.90;;;;;;6178553;23;20431;-86
2023/01/09 07:51:10;;;;;;;2.43;0.80;;;9.60;99.90;;;;;;6177448;23;20492;-85
2023/01/09 07:53:39;;;;;;;0.93;0.87;;;9.70;99.90;;;;;;6181460;23;20409;-85
2023/01/09 07:56:06;;;;;;;1.23;0.80;;;9.60;99.90;;;;;;6188994;23;20465;-88
2023/01/09 07:58:39;;;;;;;0.90;0.90;;;9.60;99.90;;;;;;6186319;23;20461;-86
2023/01/09 08:01:09;;;;;;;1.20;0.77;;;9.70;99.90;;;;;;6196174;23;20426;-90
2023/01/09 08:03:37;;;;;;;0.90;0.90;;;9.70;99.90;;;;;;6200111;23;20417;-87
2023/01/09 08:06:10;;;;;;;2.23;1.27;;;9.70;99.90;;;;;;6177560;23;20527;-88
2023/01/09 08:08:42;;;;;;;1.00;0.90;;;9.70;99.90;;;;;;6189319;23;20544;-87
2023/01/09 08:11:13;;;;;;;0.97;0.70;;;9.70;99.90;;;;;;6181447;23;20408;-89
2023/01/09 08:13:45;;;;;;;2.47;1.30;;;9.70;99.90;;;;;;6182998;23;20445;-85
2023/01/09 08:16:17;;;;;;;1.37;0.90;;;9.60;99.90;;;;;;6183164;23;20456;-86
2023/01/09 08:18:45;;;;;;;1.33;1.10;;;9.70;99.90;;;;;;6185791;23;21104;-87
2023/01/09 08:21:13;;;;;;;1.77;1.10;;;9.80;99.90;;;;;;6158624;23;20751;-86
2023/01/09 08:23:41;;;;;;;3.50;0.90;;;9.80;99.90;;;;;;6182409;23;20414;-86
2023/01/09 08:26:11;;;;;;;1.67;1.07;;;9.70;99.90;;;;;;6183831;23;20441;-84
2023/01/09 08:28:38;;;;;;;0.97;0.80;;;9.80;99.90;;;;;;6168815;23;20481;-89
2023/01/09 08:31:11;;;;;;;2.57;0.80;;;9.70;99.90;;;;;;6202717;23;20397;-90
2023/01/09 08:33:39;;;;;;;1.27;0.97;;;9.70;99.90;;;;;;6158741;23;20402;-86
2023/01/09 08:36:08;;;;;;;0.70;0.70;;;9.80;99.90;;;;;;6185895;23;20432;-85
2023/01/09 08:38:35;;;;;;;1.07;0.70;;;9.80;99.90;;;;;;6184126;23;20414;-87
2023/01/09 08:49:32;;;;;;;2.93;0.90;;;9.70;99.90;;;;;;6163119;23;20413;-87
2023/01/09 08:52:02;;;;;;;1.37;0.53;;;9.80;99.90;;;;;;6181935;23;20953;-86
2023/01/09 08:54:33;;;;;;;5.03;0.70;;;9.90;99.90;;;;;;6184164;23;20394;-88
2023/01/09 08:57:00;;;;;;;2.43;1.83;;;9.90;99.90;;;;;;6181797;23;20453;-87
2023/01/09 08:59:29;;;;;;;0.73;0.50;;;9.90;99.90;;;;;;6180968;23;20414;-87
2023/01/09 09:01:59;;;;;;;2.20;0.73;;;9.90;99.90;;;;;;6180026;23;20417;-85
2023/01/09 09:04:26;;;;;;;3.40;1.23;;;9.80;99.90;;;;;;6183493;23;20473;-88
2023/01/09 09:06:53;;;;;;;1.00;0.70;;;9.80;99.90;;;;;;6179695;23;20730;-86
2023/01/09 09:09:26;;;;;;;0.80;0.80;;;9.90;99.90;;;;;;6177474;23;20417;-88
2023/01/09 09:12:05;;;;;;;2.30;0.90;;;9.90;99.90;;;;;;6180581;23;20414;-88
2023/01/09 09:17:25;;;;;;;0.67;0.67;;;10.00;99.90;;;;;;6182416;23;20450;-87
2023/01/09 09:19:54;;;;;;;0.70;0.63;;;10.00;99.90;;;;;;6182510;23;20406;-86
2023/01/09 09:22:23;;;;;;;1.23;0.70;;;9.90;99.90;;;;;;6182942;23;20488;-87
2023/01/09 09:25:01;;;;;;;1.43;0.63;;;9.90;99.90;;;;;;6181125;23;20497;-86
2023/01/09 09:27:35;;;;;;;2.50;1.00;;;10.00;99.90;;;;;;6181403;23;20460;-87
2023/01/09 09:30:03;;;;;;;0.93;0.67;;;10.00;99.90;;;;;;6184348;23;20496;-87
2023/01/09 09:32:37;;;;;;;1.50;0.70;;;10.00;99.90;;;;;;6178000;23;20413;-89
2023/01/09 09:35:07;;;;;;;3.17;0.97;;;10.00;99.90;;;;;;6179133;23;20425;-86
2023/01/09 09:37:37;;;;;;;0.80;0.80;;;10.10;99.90;;;;;;6181031;23;20441;-86
2023/01/09 09:40:06;;;;;;;1.80;0.80;;;10.10;99.90;;;;;;6187646;23;20446;-88
2023/01/09 09:46:25;;;;;;;0.67;0.60;;;10.20;99.90;;;;;;6179602;23;20464;-87
2023/01/09 09:48:58;;;;;;;1.30;0.90;;;10.20;99.90;;;;;;6177205;23;20414;-87
2023/01/09 09:52:15;;;;;;;1.60;0.60;;;10.20;99.90;;;;;;6159768;23;20577;-87
2023/01/09 09:54:50;;;;;;;1.33;0.87;;;10.10;99.90;;;;;;6125422;23;20838;-84
2023/01/09 09:57:25;;;;;;;1.13;0.80;;;10.20;99.90;;;;;;6184622;23;20512;-86
2023/01/09 09:59:56;;;;;;;3.70;1.17;;;10.30;99.90;;;;;;6162063;23;20410;-89
2023/01/09 10:02:44;;;;;;;4.03;0.77;;;10.10;99.90;;;;;;6198479;23;20440;-90
2023/01/09 10:05:16;;;;;;;1.97;1.20;;;10.30;99.90;;;;;;6198332;23;20442;-88
2023/01/09 10:08:01;;;;;;;1.10;0.70;;;10.20;99.90;;;;;;6198353;23;20460;-88
2023/01/09 10:10:52;;;;;;;0.83;0.83;;;10.30;99.90;;;;;;6197655;23;20410;-85
2023/01/09 10:16:48;;;;;;;1.33;0.90;;;10.20;99.90;;;;;;6186208;23;20472;-85
2023/01/09 10:19:47;;;;;;;1.83;0.83;;;10.00;99.90;;;;;;6182798;23;20896;-85
2023/01/09 10:22:20;;;;;;;1.57;0.80;;;10.10;99.90;;;;;;6194704;23;20416;-86
2023/01/09 10:25:02;;;;;;;1.73;0.60;;;10.20;99.90;;;;;;6188199;23;20734;-86
2023/01/09 10:28:01;;;;;;;1.50;0.60;;;10.10;99.90;;;;;;6183694;23;20418;-88
2023/01/09 10:31:18;;;;;;;1.13;1.00;;;10.10;99.90;;;;;;6184328;23;20417;-87
2023/01/09 10:34:23;;;;;;;0.97;0.60;;;10.30;99.50;;;;;;6183109;23;20420;-86
2023/01/09 10:37:03;;;;;;;0.90;0.73;;;10.10;99.70;;;;;;6183417;23;20457;-86
2023/01/09 10:40:05;;;;;;;0.70;0.60;;;10.10;99.90;;;;;;6157931;23;20488;-87
2023/01/09 10:42:36;;;;;;;2.87;0.50;;;10.00;99.90;;;;;;6157004;23;20467;-87
2023/01/09 10:45:53;;;;;;;4.23;0.93;;;10.10;99.90;;;;;;6188034;23;20405;-87
2023/01/09 10:48:34;;;;;;;0.93;0.70;;;10.30;99.80;;;;;;6167133;23;20412;-86
2023/01/09 10:51:15;;;;;;;1.07;0.60;;;10.20;99.90;;;;;;6162902;23;20656;-86
2023/01/09 10:53:55;;;;;;;1.20;0.83;;;10.40;99.90;;;;;;6183336;23;20480;-86
2023/01/09 10:56:36;;;;;;;1.40;0.60;;;10.40;99.00;;;;;;6182983;23;20525;-89
2023/01/09 10:59:24;;;;;;;0.93;0.80;;;10.40;99.50;;;;;;6182405;23;20406;-86
2023/01/09 11:01:52;;;;;;;1.70;0.70;;;10.30;99.50;;;;;;6184724;23;20492;-86
2023/01/09 11:04:32;;;;;;;1.40;0.70;;;10.30;99.60;;;;;;6185122;23;20402;-87
2023/01/09 11:07:20;;;;;;;1.57;0.70;;;10.40;99.60;;;;;;6187165;23;20445;-87
2023/01/09 11:10:06;;;;;;;2.00;0.80;;;10.30;99.20;;;;;;6180538;23;20470;-84
2023/01/09 11:12:38;;;;;;;2.20;0.70;;;10.30;98.80;;;;;;6181535;23;20403;-86
2023/01/09 11:15:14;;;;;;;0.87;0.60;;;10.50;98.20;;;;;;6182186;23;20433;-86
2023/01/09 11:17:43;;;;;;;1.00;0.67;;;10.30;98.20;;;;;;6181475;23;20441;-86
2023/01/09 11:20:24;;;;;;;3.00;0.50;;;10.70;98.00;;;;;;6182287;23;20758;-86
2023/01/09 11:22:57;;;;;;;1.07;0.60;;;10.80;97.10;;;;;;6156426;23;20444;-87
2023/01/09 11:25:32;;;;;;;1.37;1.27;;;10.50;97.30;;;;;;6184905;23;20524;-87
2023/01/09 11:28:08;;;;;;;1.10;0.53;;;10.30;97.80;;;;;;6185189;23;20473;-89
2023/01/09 11:30:58;;;;;;;0.60;0.50;;;10.20;98.10;;;;;;6187744;23;20389;-87
2023/01/09 11:33:42;;;;;;;0.77;0.67;;;10.10;98.20;;;;;;6188700;23;20421;-86
2023/01/09 11:36:14;;;;;;;2.20;0.60;;;10.40;98.30;;;;;;6187171;23;20441;-86
2023/01/09 11:39:17;;;;;;;2.10;1.40;;;10.30;98.20;;;;;;6187491;23;20452;-83
2023/01/09 11:45:43;;;;;;;1.07;0.67;;;10.20;98.30;;;;;;6169237;23;20933;-86
2023/01/09 11:48:31;;;;;;;0.60;0.60;;;10.10;98.50;;;;;;6165399;23;20420;-86
2023/01/09 11:51:17;;;;;;;1.20;0.80;;;10.10;98.90;;;;;;6192150;23;20522;-90
2023/01/09 11:54:29;;;;;;;0.80;0.70;;;10.30;99.00;;;;;;6185191;23;20451;-87
2023/01/09 11:57:19;;;;;;;1.33;0.80;;;10.20;98.90;;;;;;6154366;23;20457;-85
2023/01/09 11:59:50;;;;;;;1.20;0.50;;;10.10;99.10;;;;;;6158122;23;20402;-86
2023/01/09 12:02:56;;;;;;;0.67;0.57;;;10.10;99.30;;;;;;6145433;23;20418;-85
2023/01/09 12:06:03;;;;;;;1.03;0.50;;;10.10;99.40;;;;;;6135131;23;20438;-87
2023/01/09 12:09:39;;;;;;;2.40;0.57;;;10.20;98.70;;;;;;6129968;23;20407;-87
2023/01/09 12:12:33;;;;;;;0.50;0.40;;;10.20;98.40;;;;;;6141286;23;21092;-88
2023/01/09 12:15:38;;;;;;;0.40;0.40;;;10.10;98.10;;;;;;6153880;23;20427;-86
2023/01/09 12:18:10;;;;;;;0.70;0.57;;;10.10;98.30;;;;;;6159821;23;20825;-86
2023/01/09 12:21:24;;;;;;;0.60;0.60;;;10.10;98.20;;;;;;6159681;23;20410;-85
2023/01/09 12:24:28;;;;;;;0.50;0.40;;;10.10;98.60;;;;;;6155205;23;20399;-87
2023/01/09 12:27:42;;;;;;;0.50;0.50;;;10.20;98.70;;;;;;6160514;23;20441;-88
2023/01/09 12:31:06;;;;;;;1.10;0.60;;;10.40;98.40;;;;;;6135024;23;21140;-86
2023/01/09 12:34:28;;;;;;;0.87;0.50;;;10.30;98.20;;;;;;6156565;23;20399;-86
2023/01/09 12:38:22;;;;;;;1.47;0.90;;;10.20;98.20;;;;;;6146237;23;20462;-85
2023/01/09 12:41:21;;;;;;;1.90;0.63;;;10.10;98.40;;;;;;6158156;23;20414;-86
2023/01/09 12:44:26;;;;;;;1.83;0.70;;;10.20;98.70;;;;;;6162414;23;20933;-87
2023/01/09 12:47:28;;;;;;;1.43;0.90;;;10.30;98.70;;;;;;6137131;23;20439;-86
2023/01/09 12:50:35;;;;;;;1.43;0.70;;;10.70;97.80;;;;;;6167788;23;20441;-88
2023/01/09 12:53:51;;;;;;;1.37;0.60;;;10.40;97.60;;;;;;6162558;23;20398;-88
2023/01/09 12:57:05;;;;;;;0.90;0.67;;;10.30;98.00;;;;;;6184820;23;20441;-88
2023/01/09 12:59:45;;;;;;;1.10;0.80;;;10.30;98.10;;;;;;6165748;23;20421;-86
2023/01/09 13:02:40;;;;;;;1.13;0.67;;;10.50;98.20;;;;;;6189387;23;20417;-89
2023/01/09 13:05:29;;;;;;;3.50;0.90;;;10.60;97.90;;;;;;6193003;23;20409;-86
2023/01/09 13:08:37;;;;;;;1.23;1.10;;;10.70;97.80;;;;;;6196177;23;20426;-86
2023/01/09 13:11:53;;;;;;;2.30;0.80;;;10.90;96.60;;;;;;6155135;23;20401;-84
2023/01/09 13:15:05;;;;;;;2.10;0.80;;;10.70;96.90;;;;;;6192227;23;20418;-85
2023/01/09 13:17:54;;;;;;;0.70;0.70;;;10.70;96.80;;;;;;6191083;23;20456;-83
2023/01/09 13:21:06;;;;;;;1.03;0.70;;;10.50;97.30;;;;;;6169178;23;20449;-85
2023/01/09 13:24:04;;;;;;;4.33;3.07;;;10.90;96.70;;;;;;6081543;23;20416;-86
2023/01/09 13:27:34;;;;;;;1.77;1.00;;;10.70;97.00;;;;;;6104345;23;20450;-86
2023/01/09 13:33:17;;;;;;;2.13;1.00;;;10.80;97.30;;;;;;6178866;23;20374;-90
2023/01/09 13:35:58;;;;;;;1.00;0.73;;;11.00;97.10;;;;;;6176733;23;20584;-85
2023/01/09 13:39:01;;;;;;;1.70;1.00;;;11.10;96.60;;;;;;6144170;23;20442;-85
2023/01/09 13:45:20;;;;;;;1.87;1.00;;;11.00;97.00;;;;;;6164476;23;20399;-86
2023/01/09 13:48:28;;;;;;;2.40;1.13;;;10.70;97.00;;;;;;6139991;23;20422;-85
2023/01/09 13:51:42;;;;;;;4.33;1.30;;;10.80;97.50;;;;;;6112626;23;20419;-89
2023/01/09 13:54:57;;;;;;;2.20;1.10;;;10.60;97.40;;;;;;6074527;23;20417;-85
2023/01/09 13:57:38;;;;;;;1.17;1.07;;;10.50;97.70;;;;;;6141849;23;20485;-85
2023/01/09 14:00:42;;;;;;;1.30;1.20;;;10.40;97.90;;;;;;6142171;23;20417;-86
2023/01/09 14:03:31;;;;;;;1.23;1.03;;;10.50;98.00;;;;;;6137026;23;20481;-86
2023/01/09 14:06:26;;;;;;;3.17;1.53;;;10.50;98.00;;;;;;6119396;23;20454;-85
2023/01/09 14:09:25;;;;;;;3.90;1.27;;;10.50;98.00;;;;;;6137033;23;20399;-88
2023/01/09 14:15:43;;;;;;;4.20;1.33;;;10.50;97.90;;;;;;6155797;23;20473;-85
2023/01/09 14:18:56;;;;;;;4.10;1.57;;;10.40;98.00;;;;;;6141654;23;20458;-84
2023/01/09 14:22:00;;;;;;;4.37;2.00;;;10.50;98.30;;;;;;6108784;23;20422;-83
2023/01/09 14:25:05;;;;;;;3.23;2.33;;;10.40;98.20;;;;;;6135696;23;20992;-84
2023/01/09 14:28:35;;;;;;;4.13;1.57;;;10.50;98.10;;;;;;6158889;23;21208;-85
2023/01/09 14:31:06;;;;;;;1.37;1.13;;;10.90;97.20;;;;;;6049247;23;20466;-85
2023/01/09 14:33:49;;;;;;;5.43;2.10;;;10.60;97.40;;;;;;6048742;23;20405;-88
2023/01/09 14:36:58;;;;;;;1.33;1.23;;;10.40;97.40;;;;;;6121414;23;21011;-86
2023/01/09 14:39:57;;;;;;;6.77;1.87;;;10.40;97.90;;;;;;6142345;23;20382;-88
2023/01/09 14:43:04;;;;;;;1.13;1.03;;;10.50;97.50;;;;;;6117212;23;20501;-85
2023/01/09 14:46:07;;;;;;;1.50;1.10;;;10.30;97.50;;;;;;6162582;23;20438;-87
2023/01/09 14:49:17;;;;;;;1.17;1.07;;;10.20;97.30;;;;;;6143402;23;20463;-86
2023/01/09 14:55:53;;;;;;;1.70;1.60;;;10.20;97.70;;;;;;6163258;23;20418;-88
2023/01/09 14:58:39;;;;;;;3.10;1.40;;;10.00;97.80;;;;;;6133885;23;20522;-87
2023/01/09 15:01:56;;;;;;;4.23;1.50;;;10.00;98.00;;;;;;6164126;23;20490;-87
2023/01/09 15:08:28;;;;;;;3.87;1.40;;;10.00;98.30;;;;;;6168424;23;20403;-87
2023/01/09 15:14:44;;;;;;;4.90;1.70;;;10.00;98.40;;;;;;6168385;23;20410;-87
2023/01/09 15:17:47;;;;;;;4.60;1.53;;;10.00;98.50;;;;;;6164077;23;20507;-86
2023/01/09 15:20:59;;;;;;;2.87;1.63;;;10.00;98.50;;;;;;6140890;23;20436;-86
2023/01/09 15:24:04;;;;;;;2.50;1.30;;;10.00;98.50;;;;;;6142292;23;20465;-88
2023/01/09 15:27:14;;;;;;;7.80;2.10;;;10.00;98.90;;;;;;6164659;23;20438;-85
2023/01/09 15:29:50;;;;;;;2.40;1.20;;;10.10;99.00;;;;;;6161749;23;20759;-85
2023/01/09 15:32:40;;;;;;;3.77;1.87;;;10.30;98.90;;;;;;6112543;23;20415;-86
2023/01/09 15:35:21;;;;;;;5.67;1.30;;;10.50;98.70;;;;;;6108365;23;20498;-86
2023/01/09 15:37:59;;;;;;;1.80;1.70;;;10.60;98.00;;;;;;6082842;23;20770;-86
2023/01/09 15:41:21;;;;;;;1.30;1.20;;;10.30;98.20;;;;;;6048293;23;20413;-84
2023/01/09 15:44:46;;;;;;;2.37;1.10;;;10.10;98.70;;;;;;6132345;23;20399;-86
2023/01/09 15:47:31;;;;;;;1.10;1.10;;;10.00;98.80;;;;;;6108985;23;20411;-86
2023/01/09 15:50:32;;;;;;;5.23;1.40;;;9.90;99.90;;;;;;6111085;23;20402;-89
2023/01/09 15:53:24;;;;;;;6.43;1.50;;;9.80;99.90;;;;;;6115040;23;20494;-86
2023/01/09 15:56:36;;;;;;;3.80;1.90;;;9.90;99.90;;;;;;6107977;23;20486;-84
2023/01/09 16:50:15;;;;;;;5.83;1.97;;;9.70;99.90;;;;;;5573146;22;17844896;-87
2023/01/09 16:53:15;;;;;;;2.10;1.43;;;9.50;99.90;;;;;;6333451;22;20174;-88
2023/01/09 16:56:08;;;;;;;3.30;2.47;;;9.40;99.90;;;;;;6336149;22;20425;-87
2023/01/09 16:59:07;;;;;;;2.10;1.63;;;9.50;99.90;;;;;;6308828;22;20437;-88
2023/01/09 17:01:54;;;;;;;3.40;1.70;;;9.40;99.90;;;;;;6319818;22;21143;-86
2023/01/09 17:04:45;;;;;;;4.10;2.10;;;9.50;99.90;;;;;;6317090;22;20413;-85
2023/01/09 17:07:36;;;;;;;;;;;;;;;;;;;;;
2023/01/09 17:10:32;;;;;;;4.63;1.90;;;9.40;99.90;;;;;;6324002;22;20464;-89
2023/01/09 17:13:10;;;;;;;3.13;1.43;;;9.40;99.90;;;;;;6324558;22;20409;-89
2023/01/09 17:16:08;;;;;;;2.13;1.40;;;9.30;99.90;;;;;;6321952;22;20429;-87
2023/01/09 17:22:53;;;;;;;2.37;1.60;;;9.20;99.90;;;;;;6317085;22;20390;-88
2023/01/09 17:29:28;;;;;;;5.73;2.13;;;9.20;99.90;;;;;;6319516;22;20472;-87
2023/01/09 17:32:11;;;;;;;3.50;1.73;;;9.20;99.90;;;;;;6322145;22;20401;-86
2023/01/09 17:35:12;;;;;;;3.93;1.80;;;9.10;99.90;;;;;;6236139;23;20427;-88
2023/01/09 17:41:46;;;;;;;3.70;1.90;;;9.00;99.90;;;;;;6250530;23;20400;-87
2023/01/09 17:44:52;;;;;;;3.03;1.30;;;9.00;99.90;;;;;;6233733;23;20408;-86
2023/01/09 17:48:22;;;;;;;3.43;2.10;;;8.90;99.90;;;;;;6233978;23;20525;-87
2023/01/09 17:51:28;;;;;;;4.70;2.07;;;8.90;99.90;;;;;;6058711;23;20913;-88
2023/01/09 17:54:14;;;;;;;4.20;1.87;;;8.90;99.90;;;;;;6194514;23;20806;-90
2023/01/09 17:57:46;;;;;;;;;;;;;;;;;;;;;
2023/01/09 18:01:20;;;;;;;3.53;2.03;;;8.90;99.90;;;;;;6193338;23;20599;-86
2023/01/09 18:04:20;;;;;;;3.63;1.53;;;9.00;99.90;;;;;;6255911;22;20411;-87
2023/01/09 18:15:12;;;;;;;2.80;1.70;;;9.30;99.90;;;;;;6219923;23;20389;-85
2023/01/09 18:21:26;;;;;;;4.27;2.57;;;9.10;99.90;;;;;;6119274;23;20392;-86
2023/01/09 18:24:17;;;;;;;4.90;2.03;;;9.00;99.90;;;;;;6147559;23;20389;-85
2023/01/09 18:26:49;;;;;;;5.30;3.20;;;9.00;99.90;;;;;;6188474;23;21038;-88
2023/01/09 18:29:44;;;;;;;4.57;2.17;;;9.10;99.90;;;;;;6169439;23;20394;-90
2023/01/09 18:44:26;;;;;;;5.03;2.30;;;9.00;99.90;;;;;;6261595;23;20356;-90
2023/01/09 18:48:07;;;;;;;;;;;;;;;;;;;;;
2023/01/09 18:59:29;;;;;;;3.87;2.47;;;9.10;99.90;;;;;;6103218;23;20444;-85
2023/01/09 19:02:49;;;;;;;5.07;3.73;;;9.10;99.90;;;;;;6133569;23;20426;-86
2023/01/09 19:06:58;;;;;;;2.63;1.87;;;9.10;99.90;;;;;;6147809;23;20418;-89
2023/01/09 19:09:55;;;;;;;7.10;2.23;;;9.10;99.90;;;;;;5999577;23;20498;-89
2023/01/09 19:20:25;;;;;;;3.17;2.33;;;9.10;99.90;;;;;;5930288;24;20470;-88